ADDS METAR Data INFO
IDs: Format: Raw Decoded Include TAF

Data at: 2049 UTC 24 Jun 2018

PFEL 241956Z AUTO VRB05KT 10SM BKN016 OVC021 11/08 A3005 RMK AO2 SLP177 T01110078
PFEL 241856Z AUTO 02004KT 10SM BKN016 OVC021 11/07 A3006 RMK AO2 SLP180 T01110072
PFEL 241756Z AUTO 06003KT 10SM OVC020 11/07 A3006 RMK AO2 SLP182 T01110072 10111 20083 56003
PFEL 241739Z AUTO 01003KT 9SM BKN020 BKN038 OVC055 11/07 A3007 RMK AO2
PFEL 241656Z AUTO VRB04KT 10SM OVC055 11/07 A3006 RMK AO2 SLP180 T01060067
PFEL 241556Z AUTO 02003KT 10SM OVC055 10/07 A3007 RMK AO2 SLP183 T01000067
PFEL 241456Z AUTO 00000KT 10SM OVC055 10/06 A3007 RMK AO2 SLP184 T01000061 56004
PFEL 241356Z AUTO VRB04KT 10SM FEW039 OVC050 10/06 A3008 RMK AO2 SLP186 T01000056
PFEL 241256Z AUTO VRB06KT 10SM FEW037 OVC050 10/06 A3008 RMK AO2 SLP186 T01000056
PFEL 241156Z AUTO 32004KT 10SM BKN048 10/06 A3009 RMK AO2 SLP189 T01000056 10128 20094 53001
PFEL 241056Z AUTO 28007G16KT 10SM OVC041 10/05 A3008 RMK AO2 SLP188 T01000050
PFEL 240956Z AUTO 25012G17KT 200V290 10SM BKN041 11/05 A3008 RMK AO2 SLP187 T01060050
PFEL 240856Z AUTO 27011G18KT 230V300 10SM OVC043 10/05 A3008 RMK AO2 SLP188 T01000050 401330078 58002
PFEL 240756Z AUTO 25009G15KT 220V300 10SM OVC048 11/06 A3009 RMK AO2 SLP191 T01110056
PFEL 240656Z AUTO 26006KT 10SM BKN048 12/05 A3009 RMK AO2 SLP190 T01170050
PFEL 240556Z AUTO 26005KT 10SM CLR 12/04 A3009 RMK AO2 SLP188 T01220044 10133 20111 56007
PFEL 240456Z AUTO VRB04KT 10SM SCT049 13/04 A3009 RMK AO2 SLP189 T01330039
PFEL 240356Z AUTO 21008KT 10SM BKN042 OVC050 12/06 A3010 RMK AO2 SLP193 T01170056
PFEL 240256Z AUTO 22007KT 10SM CLR 12/05 A3011 RMK AO2 SLP196 T01170050 58005
PFEL 240156Z AUTO 20008KT 10SM CLR 11/06 A3012 RMK AO2 SLP199 T01110056
PFEL 240056Z AUTO 21009KT 10SM CLR 11/05 A3012 RMK AO2 SLP201 T01110050
PFEL 232356Z AUTO 20013KT 10SM FEW045 12/05 A3012 RMK AO2 SLP201 T01220050 10128 20117 58001
PFEL 232256Z AUTO 19009KT 10SM CLR 12/04 A3013 RMK AO2 SLP203 T01170044
PFEL 232156Z AUTO 19011KT 10SM CLR 12/04 A3013 RMK AO2 SLP203 T01220039
PFEL 232056Z AUTO 20013KT 10SM OVC060 12/04 A3013 RMK AO2 SLP202 T01220039 51006
PFEL 231956Z AUTO 20009KT 10SM OVC055 12/06 A3012 RMK AO2 SLP200 T01220056
PFEL 231856Z AUTO 20010KT 10SM BKN060 12/06 A3012 RMK AO2 SLP199 T01220056
PFEL 231756Z AUTO 20005KT 10SM FEW050 12/08 A3011 RMK AO2 SLP196 60000 T01170078 10117 20078 50001
PFEL 231656Z AUTO 25007KT 220V280 10SM OVC050 11/07 A3011 RMK AO2 SLP197 T01060072
PFEL 231605Z AUTO VRB05KT 10SM SCT025 OVC055 10/07 A3011 RMK AO2
PFEL 231556Z AUTO VRB06KT 10SM BKN027 BKN032 OVC055 10/07 A3011 RMK AO2 SLP195 T01000067
PFEL 231456Z AUTO VRB04KT 10SM SCT050 10/07 A3010 RMK AO2 RAB13E29 SLP192 P0000 60000 T01000072 51004
PFEL 231426Z AUTO 26003KT 10SM -RA FEW015 BKN040 OVC050 10/08 A3009 RMK AO2 RAB13 P0000
PFEL 231416Z AUTO VRB03KT 9SM -RA FEW015 BKN023 OVC060 09/08 A3009 RMK AO2 RAB13 P0000
PFEL 231356Z AUTO VRB03G14KT 10SM FEW021 BKN060 09/07 A3009 RMK AO2 RAE34 SLP191 P0000 T00890072
PFEL 231346Z AUTO 35003KT 10SM SCT025 SCT060 09/07 A3009 RMK AO2 RAE34 P0000
PFEL 231334Z AUTO 00000KT 10SM FEW020 BKN027 BKN033 09/08 A3009 RMK AO2 RAE34 P0000
PFEL 231303Z AUTO 10008G14KT 340V230 10SM -RA SCT025 OVC043 08/07 A3009 RMK AO2 P0000
PFEL 231256Z AUTO 04006G15KT 9SM -RA BKN025 BKN036 OVC045 08/07 A3009 RMK AO2 WSHFT 1229 RAB46 SLP191 P0000 T00830067
PFEL 231249Z AUTO 18009G15KT 080V240 9SM -RA SCT025 BKN036 OVC045 09/07 A3009 RMK AO2 WSHFT 1229 RAB46 P0000
PFEL 231156Z AUTO VRB04KT 10SM SCT032 SCT047 08/06 A3009 RMK AO2 SLP188 T00830061 10117 20078 53011
PFEL 231056Z AUTO 21014KT 170V240 10SM CLR 09/06 A3007 RMK AO2 SLP184 T00940056
PFEL 230956Z AUTO 20014KT 040V280 10SM CLR 09/06 A3006 RMK AO2 SLP181 T00940056
PFEL 230856Z AUTO 22010KT 10SM CLR 10/06 A3005 RMK AO2 SLP178 T01000056 401500100 53013